createdAt,value
2023-02-06T00:05:18.800Z,5.8
2023-02-06T00:11:10.861Z,5.6
2023-02-06T00:17:03.585Z,5.7
2023-02-06T00:22:59.920Z,5.6
2023-02-06T00:28:51.023Z,5.7
2023-02-06T00:34:41.714Z,5.7
2023-02-06T00:40:33.987Z,5.7
2023-02-06T00:46:26.961Z,5.7
2023-02-06T00:52:18.929Z,5.7
2023-02-06T00:58:10.559Z,5.8
2023-02-06T01:04:01.897Z,5.7
2023-02-06T01:09:54.290Z,5.7
2023-02-06T01:15:50.968Z,5.5
2023-02-06T01:21:42.226Z,5.4
2023-02-06T01:27:31.735Z,5.4
2023-02-06T01:33:31.818Z,5.4
2023-02-06T01:39:22.873Z,5.3
2023-02-06T01:45:16.128Z,5.1
2023-02-06T01:51:09.094Z,4.9
2023-02-06T01:56:59.082Z,4.8
2023-02-06T02:02:49.636Z,4.8
2023-02-06T02:08:40.134Z,4.7
2023-02-06T02:14:33.793Z,4.7
2023-02-06T02:20:28.832Z,4.7
2023-02-06T02:26:21.556Z,4.7
2023-02-06T02:32:14.767Z,4.6
2023-02-06T02:38:12.124Z,4.6
2023-02-06T02:44:05.614Z,4.4
2023-02-06T02:49:57.233Z,4.2
2023-02-06T02:55:49.058Z,4.1
2023-02-06T03:01:40.969Z,4
2023-02-06T03:07:31.171Z,4
2023-02-06T03:13:27.923Z,3.9
2023-02-06T03:19:17.972Z,3.8
2023-02-06T03:25:09.913Z,3.6
2023-02-06T03:30:59.792Z,3.6
2023-02-06T03:36:50.149Z,3.4
2023-02-06T03:42:41.183Z,3.4
2023-02-06T03:48:32.915Z,3.3
2023-02-06T03:54:22.609Z,3.3
2023-02-06T04:00:14.674Z,3.4
2023-02-06T04:06:05.119Z,3.4
2023-02-06T04:11:54.416Z,3.2
2023-02-06T04:17:57.873Z,3.2
2023-02-06T04:23:52.625Z,3.4
2023-02-06T04:29:49.172Z,3.3
2023-02-06T04:35:40.286Z,3.3
2023-02-06T04:41:31.468Z,3.3
2023-02-06T04:47:20.470Z,3.2
2023-02-06T04:53:09.519Z,3
2023-02-06T04:59:00.312Z,3
2023-02-06T05:04:50.558Z,2.9
2023-02-06T05:10:41.182Z,3.2
2023-02-06T05:16:35.445Z,3.2
2023-02-06T05:22:27.134Z,3.2
2023-02-06T05:28:22.455Z,3.3
2023-02-06T05:34:13.014Z,3.2
2023-02-06T05:40:02.646Z,3.2
2023-02-06T05:45:53.640Z,3.2
2023-02-06T05:51:42.761Z,3.4
2023-02-06T05:57:31.848Z,3.2
2023-02-06T06:03:21.889Z,3.1
2023-02-06T06:09:16.458Z,3.2
2023-02-06T06:15:06.953Z,3.2
2023-02-06T06:21:04.767Z,3.2
2023-02-06T06:26:54.928Z,3.2
2023-02-06T06:32:57.261Z,3.2
2023-02-06T06:38:56.783Z,3
2023-02-06T06:44:53.603Z,3.1
2023-02-06T06:51:10.946Z,2.9
2023-02-06T06:57:21.468Z,3
2023-02-06T07:03:26.944Z,2.8
2023-02-06T07:09:32.401Z,2.9
2023-02-06T07:15:38.801Z,2.7
2023-02-06T07:21:36.720Z,2.8
2023-02-06T07:27:29.818Z,2.7
2023-02-06T07:33:28.262Z,2.7
2023-02-06T07:39:20.054Z,2.7
2023-02-06T07:45:12.486Z,2.9
2023-02-06T07:51:09.774Z,3
2023-02-06T07:57:02.754Z,3.1
2023-02-06T08:02:53.861Z,3
2023-02-06T08:08:46.289Z,3.1
2023-02-06T08:14:49.048Z,3.2
2023-02-06T08:20:40.337Z,3.3
2023-02-06T08:26:32.562Z,3.2
2023-02-06T08:32:24.055Z,3.2
2023-02-06T08:38:15.853Z,3.4
2023-02-06T08:44:08.992Z,3.3
2023-02-06T08:50:03.462Z,3.3
2023-02-06T08:55:54.785Z,3.4
2023-02-06T09:01:47.594Z,3.5
2023-02-06T09:13:46.473Z,3.5
2023-02-06T09:19:40.283Z,3.8
2023-02-06T09:25:30.875Z,3.8
2023-02-06T09:31:24.483Z,3.8
2023-02-06T09:37:25.723Z,3.8
2023-02-06T09:49:21.682Z,3.9
2023-02-06T09:55:22.530Z,4.1
2023-02-06T10:01:23.250Z,4.1
2023-02-06T10:07:14.890Z,4.1
2023-02-06T10:13:21.676Z,4
2023-02-06T10:19:16.585Z,4.1
2023-02-06T10:25:14.578Z,4.1
2023-02-06T10:31:18.853Z,4.4
2023-02-06T10:37:09.892Z,4.2
2023-02-06T10:43:05.500Z,4.4
2023-02-06T10:48:56.386Z,4.1
2023-02-06T10:54:52.057Z,4.1
2023-02-06T11:00:44.690Z,4
2023-02-06T11:06:37.047Z,4.4
2023-02-06T11:12:27.945Z,4.4
2023-02-06T11:18:19.550Z,4.7
2023-02-06T11:24:10.365Z,4.8
2023-02-06T11:30:04.938Z,4.8
2023-02-06T11:35:55.253Z,4.7
2023-02-06T11:41:47.019Z,4.6
2023-02-06T11:47:38.327Z,4.8
2023-02-06T11:53:49.070Z,4.9
2023-02-06T11:59:44.732Z,4.7
2023-02-06T12:05:37.764Z,5
2023-02-06T12:11:33.099Z,5.2
2023-02-06T12:17:25.585Z,4.8
2023-02-06T12:23:16.593Z,5
2023-02-06T12:29:12.018Z,5.6
2023-02-06T12:35:03.279Z,5.3
2023-02-06T12:40:56.446Z,5.2
2023-02-06T12:46:47.235Z,5.1
2023-02-06T12:52:39.879Z,5.5
2023-02-06T12:58:41.626Z,5.4
2023-02-06T13:10:58.819Z,5.6
2023-02-06T13:29:26.321Z,5.8
2023-02-06T13:35:16.566Z,5.7
2023-02-06T13:47:35.966Z,5.8
2023-02-06T13:59:47.814Z,5.8
2023-02-06T14:05:43.061Z,6
2023-02-06T14:12:00.047Z,6.1
2023-02-06T14:31:50.990Z,5.9
2023-02-06T14:37:47.528Z,5.8
2023-02-06T14:43:40.065Z,5.9
2023-02-06T14:49:34.726Z,6
2023-02-06T14:55:27.985Z,5.8
2023-02-06T15:01:26.978Z,5.8
2023-02-06T15:20:02.905Z,5.8
2023-02-06T15:25:56.267Z,5.7
2023-02-06T15:38:01.312Z,5.8
2023-02-06T15:50:17.930Z,5.8
2023-02-06T15:56:15.530Z,5.9
2023-02-06T16:02:15.531Z,5.9
2023-02-06T16:08:07.315Z,5.9
2023-02-06T16:13:59.619Z,5.9
2023-02-06T16:19:54.333Z,5.8
2023-02-06T16:25:45.018Z,5.8
2023-02-06T16:31:38.389Z,5.8
2023-02-06T16:37:30.642Z,5.7
2023-02-06T16:43:21.087Z,5.7
2023-02-06T16:49:10.839Z,5.7
2023-02-06T16:55:03.281Z,5.6
2023-02-06T17:00:53.515Z,5.6
2023-02-06T17:06:44.136Z,5.7
2023-02-06T17:12:34.328Z,5.3
2023-02-06T17:18:24.607Z,5.3
2023-02-06T17:24:15.758Z,5.1
2023-02-06T17:30:06.964Z,5
2023-02-06T17:35:56.782Z,5
2023-02-06T17:41:46.965Z,5
2023-02-06T17:47:37.401Z,4.9
2023-02-06T17:53:28.367Z,4.9
2023-02-06T17:59:20.544Z,4.8
2023-02-06T18:05:12.493Z,4.8
2023-02-06T18:11:02.841Z,4.7
2023-02-06T18:16:53.835Z,4.7
2023-02-06T18:22:43.521Z,4.6
2023-02-06T18:28:33.826Z,4.6
2023-02-06T18:34:24.377Z,4.5
2023-02-06T18:40:14.890Z,4.4
2023-02-06T18:46:05.690Z,4.3
2023-02-06T18:51:55.188Z,4.3
2023-02-06T18:57:49.240Z,4.3
2023-02-06T19:03:40.868Z,4.3
2023-02-06T19:09:29.965Z,4.2
2023-02-06T19:15:20.206Z,3.9
2023-02-06T19:21:10.033Z,3.8
2023-02-06T19:27:00.195Z,3.8
2023-02-06T19:32:50.291Z,3.5
2023-02-06T19:38:41.154Z,3.4
2023-02-06T19:44:30.906Z,3.3
2023-02-06T19:50:22.791Z,3.1
2023-02-06T19:56:13.143Z,3.2
2023-02-06T20:02:03.951Z,3
2023-02-06T20:07:53.987Z,2.7
2023-02-06T20:13:43.247Z,3
2023-02-06T20:19:32.873Z,2.7
2023-02-06T20:25:22.362Z,2.4
2023-02-06T20:31:14.804Z,2.7
2023-02-06T20:37:08.354Z,2.6
2023-02-06T20:42:58.177Z,2.4
2023-02-06T20:48:48.676Z,2.3
2023-02-06T20:54:42.158Z,2.3
2023-02-06T21:00:31.615Z,2.3
2023-02-06T21:06:25.775Z,2.1
2023-02-06T21:12:17.604Z,2.3
2023-02-06T21:18:10.052Z,2.3
2023-02-06T21:24:00.328Z,1.8
2023-02-06T21:29:53.960Z,1.9
2023-02-06T21:35:46.180Z,1.9
2023-02-06T21:41:40.705Z,2
2023-02-06T21:47:30.666Z,1.9
2023-02-06T21:53:20.728Z,1.6
2023-02-06T21:59:10.655Z,1.7
2023-02-06T22:05:01.033Z,2
2023-02-06T22:10:50.697Z,2
2023-02-06T22:16:40.040Z,2
2023-02-06T22:22:30.471Z,1.3
2023-02-06T22:28:24.634Z,1.6
2023-02-06T22:34:21.128Z,1.6
2023-02-06T22:40:14.832Z,1.5
2023-02-06T22:46:05.708Z,1.4
2023-02-06T22:52:04.772Z,1.4
2023-02-06T22:57:54.465Z,1.4
2023-02-06T23:03:46.453Z,1.4
2023-02-06T23:09:36.334Z,1.4
2023-02-06T23:15:28.460Z,1.3
2023-02-06T23:21:19.241Z,1.2
2023-02-06T23:27:11.468Z,1.3
2023-02-06T23:33:05.614Z,1.1
2023-02-06T23:39:02.265Z,1
2023-02-06T23:44:54.677Z,1.2
2023-02-06T23:50:46.494Z,1
2023-02-06T23:56:36.472Z,0.9
